Time;durP1;ratioP1;P1;durP2;ratioP2;P2;SDS_P1;SDS_P2;PMS_P1;PMS_P2;Temp;Humidity;BMP_temperature;BMP_pressure;BME280_temperature;BME280_humidity;BME280_pressure;Samples;Min_cycle;Max_cycle;Signal;HPM_P1;HPM_P2
2023/04/16 00:00:07;;;;;;;;;;;10.30;59.50;;;5.52;100.00;95488.63;5036796;23;20344;-47
2023/04/16 00:02:33;;;;;;;;;;;10.30;59.50;;;5.51;100.00;95479.09;5031116;28;19913;-49
2023/04/16 00:04:59;;;;;;;;;;;10.20;59.50;;;5.60;100.00;95485.59;5047774;28;19905;-48
2023/04/16 00:07:24;;;;;;;;;;;10.20;59.60;;;5.63;100.00;95482.50;5031291;28;19911;-47
2023/04/16 00:09:50;;;;;;;;;;;10.20;59.70;;;5.64;100.00;95488.56;5012412;28;19909;-48
2023/04/16 00:12:16;;;;;;;;;;;10.20;59.80;;;5.66;100.00;95478.59;5011722;28;19909;-53
2023/04/16 00:14:42;;;;;;;;;;;10.10;59.70;;;5.66;100.00;95486.50;5012233;28;19908;-52
2023/04/16 00:17:09;;;;;;;;;;;10.20;59.80;;;5.69;100.00;95491.31;5012314;28;19987;-50
2023/04/16 00:19:35;;;;;;;;;;;10.20;59.90;;;5.66;100.00;95489.94;5011407;28;20383;-49
2023/04/16 00:22:01;;;;;;;;;;;10.20;60.00;;;5.69;100.00;95489.47;5012417;28;19937;-47
2023/04/16 00:24:27;;;;;;;;;;;10.20;60.00;;;5.70;100.00;95492.91;5011298;28;19928;-48
2023/04/16 00:26:52;;;;;;;;;;;10.20;60.10;;;5.72;100.00;95485.56;5012153;28;20353;-51
2023/04/16 00:29:18;;;;;;;;;;;10.20;60.10;;;5.76;100.00;95489.34;5012064;28;19905;-48
2023/04/16 00:31:44;;;;;;;;;;;10.20;60.20;;;5.78;100.00;95490.72;5010959;28;20004;-50
2023/04/16 00:34:10;;;;;;;;;;;10.20;60.20;;;5.78;100.00;95495.19;5011952;28;19905;-48
2023/04/16 00:36:35;;;;;;;;;;;10.20;60.20;;;5.74;100.00;95489.59;5011195;28;19911;-51
2023/04/16 00:39:01;;;;;;;;;;;10.30;60.30;;;5.71;100.00;95491.91;4998618;28;19921;-52
2023/04/16 00:41:27;;;;;;;;;;;10.30;60.30;;;5.72;100.00;95488.22;4992390;28;19996;-54
2023/04/16 00:43:53;;;;;;;;;;;10.30;60.30;;;5.75;100.00;95493.81;5005170;28;19905;-47
2023/04/16 00:46:20;;;;;;;;;;;10.20;60.30;;;5.77;100.00;95494.41;5012061;28;19905;-47
2023/04/16 00:48:47;;;;;;;;;;;10.30;60.50;;;5.77;100.00;95486.47;5009525;28;19911;-47
2023/04/16 00:51:14;;;;;;;;;;;10.30;60.50;;;5.80;100.00;95488.66;5010852;28;19905;-50
2023/04/16 00:53:40;;;;;;;;;;;10.20;60.50;;;5.83;100.00;95489.19;5011904;28;19905;-50
2023/04/16 00:56:06;;;;;;;;;;;10.30;60.70;;;5.82;100.00;95491.03;5010145;28;19909;-47
2023/04/16 00:58:34;;;;;;;;;;;10.30;60.70;;;5.81;100.00;95489.44;5011501;28;19913;-47
2023/04/16 01:01:01;;;;;;;;;;;10.30;60.60;;;5.80;100.00;95487.84;5011410;28;19905;-46
2023/04/16 01:03:45;;;;;;;;;;;10.30;60.70;;;5.82;100.00;95495.53;5011710;28;19996;-46
2023/04/16 01:06:12;;;;;;;;;;;10.30;60.70;;;5.85;100.00;95500.34;5010106;28;20367;-50
2023/04/16 01:08:38;;;;;;;;;;;10.30;60.80;;;5.86;100.00;95494.00;5002002;28;19915;-47
2023/04/16 01:11:04;;;;;;;;;;;10.30;60.80;;;5.88;100.00;95489.28;5016140;28;20256;-47
2023/04/16 01:13:30;;;;;;;;;;;10.30;60.90;;;5.86;100.00;95489.53;5014578;28;20351;-47
2023/04/16 01:15:56;;;;;;;;;;;10.30;61.70;;;5.89;100.00;95491.72;5015898;28;20390;-51
2023/04/16 01:18:24;;;;;;;;;;;10.30;61.00;;;5.91;100.00;95494.09;5014766;28;20004;-47
2023/04/16 01:20:51;;;;;;;;;;;10.30;61.00;;;5.92;100.00;95501.81;5015724;28;19975;-47
2023/04/16 01:23:17;;;;;;;;;;;10.30;61.00;;;5.92;100.00;95501.81;5014702;28;20240;-47
2023/04/16 01:25:45;;;;;;;;;;;10.40;61.20;;;5.93;100.00;95497.34;5015076;28;19912;-48
2023/04/16 01:28:11;;;;;;;;;;;10.40;61.20;;;5.96;100.00;95499.53;5015651;28;20011;-47
2023/04/16 01:30:37;;;;;;;;;;;10.40;61.20;;;5.94;100.00;95491.81;5014660;28;20402;-49
2023/04/16 01:33:03;;;;;;;;;;;10.40;61.20;;;5.95;100.00;95504.00;5015449;28;19905;-49
2023/04/16 01:35:29;;;;;;;;;;;10.40;61.20;;;5.97;100.00;95503.78;5015469;28;19904;-47
2023/04/16 01:37:54;;;;;;;;;;;10.40;61.30;;;5.97;100.00;95507.22;5005855;28;19913;-48
2023/04/16 01:40:20;;;;;;;;;;;10.40;61.30;;;5.98;100.00;95508.00;5015286;28;20437;-47
2023/04/16 01:42:46;;;;;;;;;;;10.40;61.40;;;5.96;100.00;95497.69;5014519;28;19913;-47
2023/04/16 01:45:12;;;;;;;;;;;10.40;61.40;;;5.94;100.00;95509.53;5015673;28;19905;-52
2023/04/16 01:47:38;;;;;;;;;;;10.40;61.50;;;5.95;100.00;95509.28;5015116;28;20411;-47
2023/04/16 01:50:05;;;;;;;;;;;10.40;61.50;;;5.93;100.00;95502.66;5014405;28;19912;-47
2023/04/16 01:52:31;;;;;;;;;;;10.40;61.60;;;5.95;100.00;95503.19;5014861;28;19920;-48
2023/04/16 01:54:57;;;;;;;;;;;10.40;61.60;;;5.95;100.00;95508.47;5014187;28;20294;-47
2023/04/16 01:57:22;;;;;;;;;;;10.40;61.70;;;5.97;100.00;95519.63;5014576;28;20426;-53
2023/04/16 01:59:48;;;;;;;;;;;10.40;61.80;;;5.97;100.00;95514.34;5014996;28;19958;-50
2023/04/16 02:02:15;;;;;;;;;;;10.40;61.80;;;5.98;100.00;95519.38;5014263;28;19928;-51
2023/04/16 02:04:44;;;;;;;;;;;10.40;61.90;;;6.00;100.00;95516.53;5015077;28;19912;-48
2023/04/16 02:07:11;;;;;;;;;;;10.40;61.90;;;5.96;100.00;95508.25;5014487;28;20389;-48
2023/04/16 02:09:39;;;;;;;;;;;10.40;61.90;;;5.97;100.00;95507.22;4996669;28;19986;-49
2023/04/16 02:12:06;;;;;;;;;;;10.40;61.90;;;6.00;100.00;95514.66;4995254;28;20287;-53
2023/04/16 02:14:33;;;;;;;;;;;10.40;62.00;;;6.02;100.00;95517.09;5013336;28;20347;-46
2023/04/16 02:17:00;;;;;;;;;;;10.40;62.00;;;5.99;100.00;95512.28;5015025;28;19905;-50
2023/04/16 02:19:26;;;;;;;;;;;10.40;62.00;;;6.01;100.00;95521.56;5028602;28;19931;-49
2023/04/16 02:21:52;;;;;;;;;;;10.40;62.00;;;5.98;100.00;95511.44;5014088;28;19912;-47
2023/04/16 02:24:19;;;;;;;;;;;10.40;62.10;;;5.97;100.00;95519.63;5013488;28;19936;-51
2023/04/16 02:26:45;;;;;;;;;;;10.40;62.10;;;5.96;100.00;95521.47;5012614;28;19909;-53
2023/04/16 02:29:11;;;;;;;;;;;10.40;62.10;;;5.98;100.00;95519.38;5010978;28;19905;-53
2023/04/16 02:31:37;;;;;;;;;;;10.40;62.20;;;5.97;100.00;95520.44;5010297;28;19904;-54
2023/04/16 02:34:04;;;;;;;;;;;10.40;62.30;;;5.98;100.00;95515.94;5013767;28;20035;-47
2023/04/16 02:36:31;;;;;;;;;;;10.40;62.30;;;5.99;100.00;95517.56;5028642;28;19905;-52
2023/04/16 02:38:58;;;;;;;;;;;10.40;62.30;;;5.96;100.00;95518.84;5001700;28;19932;-48
2023/04/16 02:41:24;;;;;;;;;;;10.40;62.40;;;5.95;100.00;95525.16;4994854;28;20257;-52
2023/04/16 02:43:50;;;;;;;;;;;10.40;62.40;;;5.94;100.00;95518.25;5006877;28;19940;-48
2023/04/16 02:46:15;;;;;;;;;;;10.40;62.40;;;5.92;100.00;95528.25;5014441;28;19982;-50
2023/04/16 02:48:41;;;;;;;;;;;10.40;62.50;;;5.90;100.00;95521.59;5012994;28;19940;-46
2023/04/16 02:51:07;;;;;;;;;;;10.40;62.50;;;5.86;100.00;95526.56;5014287;28;19915;-51
2023/04/16 02:53:33;;;;;;;;;;;10.40;62.50;;;5.85;100.00;95521.50;5013896;28;19905;-52
2023/04/16 02:55:59;;;;;;;;;;;10.30;62.50;;;5.83;100.00;95518.28;5011894;28;20302;-47
2023/04/16 02:58:25;;;;;;;;;;;10.30;62.50;;;5.86;100.00;95523.91;5013662;28;19909;-48
2023/04/16 03:00:53;;;;;;;;;;;10.30;62.60;;;5.86;100.00;95521.28;5013302;28;19912;-56
2023/04/16 03:03:20;;;;;;;;;;;10.30;62.60;;;5.86;100.00;95521.28;5013747;28;19909;-48
2023/04/16 03:05:46;;;;;;;;;;;10.30;62.70;;;5.84;100.00;95525.19;5013955;28;19905;-48
2023/04/16 03:08:12;;;;;;;;;;;10.30;62.80;;;5.87;100.00;95525.50;5006219;28;19909;-49
2023/04/16 03:10:38;;;;;;;;;;;10.30;62.80;;;5.88;100.00;95524.47;4994207;28;19916;-53
2023/04/16 03:13:04;;;;;;;;;;;10.30;62.90;;;5.88;100.00;95519.19;4999317;28;20302;-49
2023/04/16 03:15:30;;;;;;;;;;;10.30;63.00;;;5.88;100.00;95519.19;5013838;28;19904;-49
2023/04/16 03:17:58;;;;;;;;;;;10.30;62.90;;;5.90;100.00;95526.88;5013552;28;19912;-49
2023/04/16 03:20:24;;;;;;;;;;;10.30;62.90;;;5.90;100.00;95519.75;5011647;28;19924;-47
2023/04/16 03:22:51;;;;;;;;;;;10.30;62.90;;;5.91;100.00;95521.34;5013451;28;19905;-48
2023/04/16 03:25:17;;;;;;;;;;;10.30;63.00;;;5.86;100.00;95523.91;5012820;28;19904;-53
2023/04/16 03:27:43;;;;;;;;;;;10.30;62.90;;;5.89;100.00;95528.72;5013310;28;19904;-46
2023/04/16 03:30:13;;;;;;;;;;;10.30;63.00;;;5.89;100.00;95522.63;5013304;28;19912;-49
2023/04/16 03:32:40;;;;;;;;;;;10.30;63.00;;;5.88;100.00;95523.66;5011419;28;20425;-47
2023/04/16 03:35:07;;;;;;;;;;;10.40;63.10;;;5.89;100.00;95533.19;5013107;28;19958;-49
2023/04/16 03:37:34;;;;;;;;;;;10.30;63.10;;;5.91;100.00;95534.56;5011010;28;20011;-47
2023/04/16 03:40:00;;;;;;;;;;;10.30;63.10;;;5.92;100.00;95530.06;5011487;28;19918;-47
2023/04/16 03:42:26;;;;;;;;;;;10.30;63.20;;;5.88;100.00;95532.38;5012198;28;20035;-47
2023/04/16 03:44:52;;;;;;;;;;;10.30;63.20;;;5.90;100.00;95534.81;5013074;28;20322;-49
2023/04/16 03:47:20;;;;;;;;;;;10.30;63.20;;;5.90;100.00;95540.91;5013205;28;20266;-48
2023/04/16 03:49:45;;;;;;;;;;;10.30;64.00;;;5.90;100.00;95545.38;5009785;28;20004;-51
2023/04/16 03:52:11;;;;;;;;;;;10.30;63.30;;;5.89;100.00;95536.66;5012573;28;19999;-49
2023/04/16 03:54:45;;;;;;;;;;;10.40;63.30;;;5.88;100.00;95542.16;5068420;28;19912;-48
2023/04/16 03:57:11;;;;;;;;;;;10.30;63.30;;;5.83;100.00;95540.25;5048765;28;19912;-47
2023/04/16 03:59:37;;;;;;;;;;;10.40;63.30;;;5.85;100.00;95540.78;5035329;28;19909;-47
2023/04/16 04:02:02;;;;;;;;;;;10.30;63.20;;;5.81;100.00;95537.03;5021696;28;19921;-47
2023/04/16 04:04:28;;;;;;;;;;;10.30;63.20;;;5.84;100.00;95541.84;5029203;28;19932;-47
2023/04/16 04:06:54;;;;;;;;;;;10.30;63.20;;;5.82;100.00;95540.47;5028163;28;19913;-48
2023/04/16 04:09:20;;;;;;;;;;;10.30;63.30;;;5.86;100.00;95541.59;5027722;28;19920;-49
2023/04/16 04:11:46;;;;;;;;;;;10.30;63.30;;;5.87;100.00;95536.09;5028823;28;19924;-47
2023/04/16 04:14:12;;;;;;;;;;;10.30;63.40;;;5.82;100.00;95533.34;5027859;28;19967;-48
2023/04/16 04:16:37;;;;;;;;;;;10.30;63.40;;;5.80;100.00;95538.88;5028846;28;19913;-48
2023/04/16 04:19:03;;;;;;;;;;;10.30;63.40;;;5.81;100.00;95537.03;5027785;28;20447;-47
2023/04/16 04:21:30;;;;;;;;;;;10.30;63.40;;;5.82;100.00;95537.81;5028658;28;19909;-48
2023/04/16 04:23:56;;;;;;;;;;;10.30;63.40;;;5.82;100.00;95538.63;5028824;28;19935;-49
2023/04/16 04:26:22;;;;;;;;;;;10.30;63.40;;;5.83;100.00;95545.53;5027703;28;20368;-47
2023/04/16 04:28:47;;;;;;;;;;;10.30;63.40;;;5.82;100.00;95540.47;5028587;28;19989;-46
2023/04/16 04:31:13;;;;;;;;;;;10.30;63.50;;;5.83;100.00;95547.34;5027946;28;19909;-47
2023/04/16 04:33:39;;;;;;;;;;;10.30;63.50;;;5.83;100.00;95547.34;5060580;28;19913;-47
2023/04/16 04:36:06;;;;;;;;;;;10.30;63.50;;;5.77;100.00;95549.91;5028583;28;20007;-47
2023/04/16 04:38:31;;;;;;;;;;;10.30;63.50;;;5.78;100.00;95546.22;5027497;28;19916;-47
2023/04/16 04:40:58;;;;;;;;;;;10.30;63.50;;;5.75;100.00;95548.53;5028581;28;19909;-48
2023/04/16 04:43:24;;;;;;;;;;;10.30;63.50;;;5.77;100.00;95560.47;5027704;28;19912;-47
2023/04/16 04:45:50;;;;;;;;;;;10.30;63.60;;;5.77;100.00;95563.13;5028554;28;20378;-47
2023/04/16 04:48:15;;;;;;;;;;;10.30;63.60;;;5.74;100.00;95558.31;5028149;28;19945;-48
2023/04/16 04:50:43;;;;;;;;;;;10.30;63.60;;;5.75;100.00;95565.19;5036639;28;19916;-52
2023/04/16 04:53:10;;;;;;;;;;;10.30;63.70;;;5.72;100.00;95556.94;5047828;28;19920;-49
2023/04/16 04:55:39;;;;;;;;;;;10.30;63.80;;;5.71;100.00;95561.41;5037207;28;19909;-50
2023/04/16 04:58:06;;;;;;;;;;;10.30;63.70;;;5.72;100.00;95562.22;5027635;28;19950;-51
2023/04/16 05:00:35;;;;;;;;;;;10.30;63.80;;;5.75;100.00;95553.81;5027248;28;19909;-53
2023/04/16 05:03:08;;;;;;;;;;;10.30;64.60;;;5.75;100.00;95562.53;5027741;28;19909;-48
2023/04/16 05:05:34;;;;;;;;;;;10.30;63.90;;;5.74;100.00;95568.09;5017785;28;19909;-47
2023/04/16 05:08:00;;;;;;;;;;;10.30;63.90;;;5.73;100.00;95564.63;5013758;28;19909;-53
2023/04/16 05:10:26;;;;;;;;;;;10.30;63.90;;;5.71;100.00;95571.19;5014351;28;19913;-51
2023/04/16 05:12:52;;;;;;;;;;;10.30;63.90;;;5.72;100.00;95570.94;5013221;28;19920;-52
2023/04/16 05:15:18;;;;;;;;;;;10.30;64.00;;;5.74;100.00;95574.16;5014589;28;19909;-50
2023/04/16 05:17:43;;;;;;;;;;;10.30;64.00;;;5.75;100.00;95581.06;5014328;28;19909;-52
2023/04/16 05:20:10;;;;;;;;;;;10.30;64.10;;;5.81;100.00;95589.88;5018550;28;20382;-51
2023/04/16 05:22:36;;;;;;;;;;;10.30;64.10;;;5.79;100.00;95586.66;5033636;28;19909;-49
2023/04/16 05:25:02;;;;;;;;;;;10.30;64.10;;;5.78;100.00;95583.22;5028044;28;19967;-51
2023/04/16 05:27:28;;;;;;;;;;;10.30;64.10;;;5.79;100.00;95584.03;5014081;28;19909;-52
2023/04/16 05:29:54;;;;;;;;;;;10.30;64.90;;;5.74;100.00;95591.88;5014413;28;19932;-48
2023/04/16 05:32:20;;;;;;;;;;;10.30;64.10;;;5.74;100.00;95595.31;5013601;28;19940;-47
2023/04/16 05:34:45;;;;;;;;;;;10.40;64.10;;;5.80;100.00;95596.22;5014116;28;19913;-47
2023/04/16 05:37:11;;;;;;;;;;;10.40;64.20;;;5.85;100.00;95598.16;5012596;28;19920;-47
2023/04/16 05:39:37;;;;;;;;;;;10.40;64.30;;;5.86;100.00;95595.28;5014326;28;19916;-49
2023/04/16 05:42:02;;;;;;;;;;;10.40;64.30;;;5.87;100.00;95601.38;5014119;28;19909;-51
2023/04/16 05:44:28;;;;;;;;;;;10.40;64.20;;;5.92;100.00;95604.94;5013218;28;20276;-47
2023/04/16 05:46:54;;;;;;;;;;;10.40;64.30;;;5.90;100.00;95599.06;5013942;28;19909;-53
2023/04/16 05:49:20;;;;;;;;;;;10.50;64.30;;;5.88;100.00;95600.34;5013026;28;19931;-49
2023/04/16 05:51:47;;;;;;;;;;;10.50;64.20;;;5.93;100.00;95603.13;5031598;28;19947;-49
2023/04/16 05:54:13;;;;;;;;;;;10.60;64.20;;;5.93;100.00;95605.75;5048316;28;19917;-47
2023/04/16 05:56:38;;;;;;;;;;;10.50;64.10;;;5.99;100.00;95616.19;5013201;28;19916;-46
2023/04/16 05:59:04;;;;;;;;;;;10.60;64.20;;;5.96;100.00;95613.22;5014351;28;19909;-57
2023/04/16 06:01:31;;;;;;;;;;;10.60;64.20;;;6.01;100.00;95611.47;5012769;28;20340;-53
2023/04/16 06:03:57;;;;;;;;;;;10.60;64.20;;;6.00;100.00;95617.78;5013900;28;19917;-53
2023/04/16 06:06:23;;;;;;;;;;;10.60;64.10;;;6.02;100.00;95614.94;5012855;28;19909;-55
2023/04/16 06:08:48;;;;;;;;;;;10.60;64.20;;;6.00;100.00;95620.44;5013883;28;20007;-55
2023/04/16 06:11:14;;;;;;;;;;;10.60;64.10;;;6.03;100.00;95622.63;5013786;28;20051;-49
2023/04/16 06:13:41;;;;;;;;;;;10.60;64.20;;;6.08;100.00;95626.38;5012630;28;19913;-52
2023/04/16 06:16:07;;;;;;;;;;;10.60;64.20;;;6.11;100.00;95618.81;5027956;28;19909;-54
2023/04/16 06:18:33;;;;;;;;;;;10.70;64.30;;;6.11;100.00;95625.91;5012396;28;20290;-52
2023/04/16 06:20:58;;;;;;;;;;;10.70;64.30;;;6.11;100.00;95624.09;5024854;28;19916;-54
2023/04/16 06:23:24;;;;;;;;;;;10.70;64.30;;;6.14;100.00;95628.94;5033247;28;20268;-55
2023/04/16 06:25:50;;;;;;;;;;;10.70;64.30;;;6.14;100.00;95628.09;5019712;28;19915;-56
2023/04/16 06:28:16;;;;;;;;;;;10.70;64.30;;;6.17;100.00;95639.03;5013389;28;19951;-50
2023/04/16 06:30:41;;;;;;;;;;;10.80;64.30;;;6.19;100.00;95633.50;5012354;28;19909;-49
2023/04/16 06:33:07;;;;;;;;;;;10.80;64.20;;;6.24;100.00;95639.69;5012850;28;19920;-56
2023/04/16 06:35:33;;;;;;;;;;;10.90;64.10;;;6.26;100.00;95628.88;5013045;28;19951;-53
2023/04/16 06:37:59;;;;;;;;;;;11.00;64.10;;;6.31;100.00;95631.63;5012044;28;19959;-51
2023/04/16 06:40:25;;;;;;;;;;;11.10;64.00;;;6.39;100.00;95638.34;5013050;28;19909;-51
2023/04/16 06:42:51;;;;;;;;;;;11.10;64.00;;;6.44;100.00;95639.25;5010615;28;19909;-56
2023/04/16 06:45:17;;;;;;;;;;;11.20;64.00;;;6.47;100.00;95636.16;5013100;28;19909;-57
2023/04/16 06:47:42;;;;;;;;;;;11.20;63.90;;;6.51;100.00;95638.31;5012467;28;20288;-54
2023/04/16 06:50:09;;;;;;;;;;;11.30;63.90;;;6.49;100.00;95643.88;5016275;28;19909;-55
2023/04/16 06:52:34;;;;;;;;;;;11.30;63.90;;;6.51;100.00;95636.47;5032336;28;20321;-57
2023/04/16 06:55:01;;;;;;;;;;;11.30;63.80;;;6.54;100.00;95645.78;5026116;28;19909;-52
2023/04/16 06:57:27;;;;;;;;;;;11.30;63.90;;;6.58;100.00;95653.03;5012625;28;19909;-55
2023/04/16 06:59:52;;;;;;;;;;;11.30;63.90;;;6.52;100.00;95645.22;5012614;28;19954;-52
2023/04/16 07:02:18;;;;;;;;;;;11.40;63.90;;;6.58;100.00;95650.38;5011717;28;20009;-54
2023/04/16 07:04:44;;;;;;;;;;;11.40;63.80;;;6.62;100.00;95645.41;5008380;28;19960;-51
2023/04/16 07:07:10;;;;;;;;;;;11.40;63.80;;;6.63;100.00;95649.66;5024333;28;19915;-53
2023/04/16 07:09:36;;;;;;;;;;;11.40;63.70;;;6.64;100.00;95648.59;5026363;28;20287;-52
2023/04/16 07:12:02;;;;;;;;;;;11.50;63.90;;;6.65;100.00;95650.22;5027715;28;19909;-52
2023/04/16 07:14:28;;;;;;;;;;;11.50;63.80;;;6.66;100.00;95647.34;5011574;28;19913;-50
2023/04/16 07:16:53;;;;;;;;;;;11.50;63.70;;;6.67;100.00;95650.78;5012427;28;19919;-53
2023/04/16 07:19:19;;;;;;;;;;;11.50;63.70;;;6.66;100.00;95651.81;5010788;28;19970;-49
2023/04/16 07:21:45;;;;;;;;;;;11.50;63.70;;;6.66;100.00;95649.19;5029846;28;19916;-50
2023/04/16 07:24:11;;;;;;;;;;;11.60;64.60;;;6.62;100.00;95648.84;5016235;28;19909;-53
2023/04/16 07:26:37;;;;;;;;;;;11.50;63.70;;;6.53;100.00;95652.13;5011097;28;19917;-54
2023/04/16 07:29:03;;;;;;;;;;;11.50;63.60;;;6.49;100.00;95654.44;5011771;28;20371;-52
2023/04/16 07:31:28;;;;;;;;;;;11.40;63.60;;;6.47;100.00;95653.88;5011606;28;20426;-51
2023/04/16 07:33:54;;;;;;;;;;;11.40;63.60;;;6.51;100.00;95660.28;5026664;28;20322;-49
2023/04/16 07:36:20;;;;;;;;;;;11.40;63.70;;;6.54;100.00;95657.16;5012063;28;19915;-51
2023/04/16 07:38:46;;;;;;;;;;;11.40;63.80;;;6.53;100.00;95655.56;5011303;28;19913;-53
2023/04/16 07:41:12;;;;;;;;;;;11.40;63.80;;;6.59;100.00;95664.41;5012176;28;20394;-57
2023/04/16 07:43:39;;;;;;;;;;;11.40;63.70;;;6.62;100.00;95663.94;5010528;28;19909;-57
2023/04/16 07:46:04;;;;;;;;;;;11.50;63.80;;;6.69;100.00;95672.53;5032019;28;19962;-55
2023/04/16 07:48:30;;;;;;;;;;;11.50;63.80;;;6.72;100.00;95672.84;5013833;28;20290;-57
2023/04/16 07:50:57;;;;;;;;;;;11.60;63.80;;;6.79;100.00;95670.06;5031620;28;20342;-57
2023/04/16 07:53:23;;;;;;;;;;;11.70;63.80;;;6.88;100.00;95673.94;5031258;28;19917;-57
2023/04/16 07:55:49;;;;;;;;;;;11.70;63.80;;;6.97;100.00;95676.19;5018532;28;19940;-53
2023/04/16 07:58:15;;;;;;;;;;;11.80;63.80;;;7.04;100.00;95680.28;5011923;28;20432;-52
2023/04/16 08:00:41;;;;;;;;;;;11.90;63.80;;;7.10;100.00;95679.31;5012688;28;19917;-55
2023/04/16 08:03:07;;;;;;;;;;;12.00;63.80;;;7.12;100.00;95682.53;5031514;28;19957;-53
2023/04/16 08:05:32;;;;;;;;;;;12.00;63.70;;;7.15;100.00;95690.00;5028413;28;19913;-53
2023/04/16 08:07:58;;;;;;;;;;;12.10;63.70;;;7.19;100.00;95690.34;5010969;28;19909;-56
2023/04/16 08:10:24;;;;;;;;;;;12.10;63.60;;;7.19;100.00;95691.13;5018793;28;19909;-57
2023/04/16 08:12:50;;;;;;;;;;;12.10;63.50;;;7.10;100.00;95689.13;5010914;28;20359;-57
2023/04/16 08:15:16;;;;;;;;;;;12.20;63.50;;;7.11;100.00;95690.72;5011627;28;19913;-56
2023/04/16 08:17:42;;;;;;;;;;;12.10;63.30;;;7.05;100.00;95696.97;5011329;28;19913;-56
2023/04/16 08:20:08;;;;;;;;;;;12.10;63.30;;;7.05;100.00;95692.50;5015482;28;19909;-55
2023/04/16 08:22:34;;;;;;;;;;;12.00;63.30;;;7.01;100.00;95701.94;5013106;28;19931;-49
2023/04/16 08:25:00;;;;;;;;;;;12.00;64.10;;;6.96;100.00;95707.19;5010472;28;19925;-53
2023/04/16 08:27:26;;;;;;;;;;;12.00;63.30;;;6.98;100.00;95702.44;5011457;28;19940;-55
2023/04/16 08:29:52;;;;;;;;;;;12.00;63.20;;;6.92;100.00;95703.38;5011625;28;19909;-53
2023/04/16 08:32:17;;;;;;;;;;;12.00;63.30;;;6.98;100.00;95707.72;5010723;28;19909;-53
2023/04/16 08:34:43;;;;;;;;;;;12.00;63.20;;;7.04;100.00;95711.28;5009737;28;19913;-54
2023/04/16 08:37:09;;;;;;;;;;;12.10;63.20;;;7.06;100.00;95712.63;5011245;28;19913;-53
2023/04/16 08:39:35;;;;;;;;;;;12.10;63.20;;;6.95;100.00;95710.84;5011506;28;19909;-53
2023/04/16 08:42:05;;;;;;;;;;;12.20;63.20;;;7.05;100.00;95715.50;5015465;28;19909;-53
2023/04/16 08:44:42;;;;;;;;;;;12.20;63.10;;;7.10;100.00;95710.31;5012754;28;19909;-56
2023/04/16 08:47:11;;;;;;;;;;;12.30;63.10;;;7.14;100.00;95714.88;5015200;28;19909;-54
2023/04/16 08:49:44;;;;;;;;;;;12.30;63.00;;;7.23;100.00;95717.94;5014491;28;19962;-54
2023/04/16 08:52:17;;;;;;;;;;;12.40;63.00;;;7.22;100.00;95720.84;5034739;28;19935;-51
2023/04/16 08:54:56;;;;;;;;;;;12.50;62.90;;;7.30;100.00;95721.28;5029618;28;19925;-51
2023/04/16 08:57:29;;;;;;;;;;;12.60;62.70;;;7.41;100.00;95724.88;5014331;28;19916;-51
2023/04/16 08:59:56;;;;;;;;;;;12.70;62.70;;;7.47;100.00;95723.13;5015088;28;19971;-51
2023/04/16 09:02:24;;;;;;;;;;;12.70;62.50;;;7.39;100.00;95726.94;5012805;28;19913;-57
2023/04/16 09:04:54;;;;;;;;;;;12.80;62.50;;;7.47;100.00;95731.06;5046278;28;19909;-51
2023/04/16 09:07:23;;;;;;;;;;;12.80;62.40;;;7.42;100.00;95732.56;5045835;28;20306;-55
2023/04/16 09:09:52;;;;;;;;;;;12.80;62.30;;;7.46;100.00;95732.91;5014181;28;20315;-49
2023/04/16 09:12:22;;;;;;;;;;;12.80;62.30;;;7.48;100.00;95732.66;5013624;28;19909;-51
2023/04/16 09:14:49;;;;;;;;;;;12.90;62.30;;;7.58;100.00;95736.28;5013668;28;20367;-49
2023/04/16 09:17:17;;;;;;;;;;;13.00;63.00;;;7.70;100.00;95736.19;5014769;28;19909;-52
2023/04/16 09:19:46;;;;;;;;;;;13.00;62.10;;;7.69;100.00;95741.75;5012394;28;20343;-51
2023/04/16 09:22:12;;;;;;;;;;;13.10;62.20;;;7.62;100.00;95737.41;5014214;28;20367;-49
2023/04/16 09:24:38;;;;;;;;;;;13.10;62.10;;;7.66;100.00;95740.38;5013955;28;19909;-52
2023/04/16 09:27:04;;;;;;;;;;;13.20;62.10;;;7.67;100.00;95743.81;5014448;28;19944;-54
2023/04/16 09:29:40;;;;;;;;;;;13.20;62.00;;;7.68;100.00;95745.41;5014118;28;19909;-52
2023/04/16 09:32:10;;;;;;;;;;;13.20;61.80;;;7.65;100.00;95744.88;5013295;28;20454;-51
2023/04/16 09:34:58;;;;;;;;;;;13.10;61.80;;;7.63;100.00;95743.50;5013761;28;19917;-53
2023/04/16 09:37:33;;;;;;;;;;;13.10;61.80;;;7.70;100.00;95753.94;5013593;28;19952;-51
2023/04/16 09:40:02;;;;;;;;;;;13.00;61.90;;;7.68;100.00;95750.72;5013520;28;19939;-53
2023/04/16 09:42:35;;;;;;;;;;;13.10;62.00;;;7.75;100.00;95754.84;5014064;28;19915;-54
2023/04/16 09:45:02;;;;;;;;;;;13.10;61.90;;;7.74;100.00;95761.19;5013913;28;19913;-54
2023/04/16 09:47:42;;;;;;;;;;;13.00;61.90;;;7.64;100.00;95753.06;5013852;28;19912;-52
2023/04/16 09:50:13;;;;;;;;;;;13.00;61.80;;;7.61;100.00;95757.00;5017581;28;19916;-52
2023/04/16 09:52:39;;;;;;;;;;;13.10;61.80;;;7.58;100.00;95762.81;5032953;28;19917;-51
2023/04/16 09:55:05;;;;;;;;;;;13.10;61.70;;;7.67;100.00;95765.03;5027221;28;19909;-54
2023/04/16 09:57:31;;;;;;;;;;;13.10;61.60;;;7.67;100.00;95765.84;5013240;28;19913;-55
2023/04/16 10:00:08;;;;;;;;;;;13.10;61.70;;;7.71;100.00;95766.97;5013664;28;19913;-54
2023/04/16 10:02:39;;;;;;;;;;;13.10;61.70;;;7.77;100.00;95767.84;5012561;28;19971;-53
2023/04/16 10:05:05;;;;;;;;;;;13.20;61.70;;;7.67;100.00;95765.03;5013535;28;19909;-55
2023/04/16 10:07:36;;;;;;;;;;;13.20;61.60;;;7.67;100.00;95773.00;5012851;28;19909;-55
2023/04/16 10:10:03;;;;;;;;;;;13.20;61.60;;;7.71;100.00;95768.81;5011752;28;19995;-49
2023/04/16 10:12:31;;;;;;;;;;;13.10;61.50;;;7.77;100.00;95773.97;5022458;28;19909;-50
2023/04/16 10:14:57;;;;;;;;;;;13.20;61.60;;;7.77;100.00;95775.78;5013809;28;19966;-52
2023/04/16 10:17:25;;;;;;;;;;;13.20;61.50;;;7.77;100.00;95771.31;5013425;28;19916;-52
2023/04/16 10:19:53;;;;;;;;;;;13.20;61.60;;;7.76;100.00;95769.69;5014844;28;20356;-51
2023/04/16 10:22:19;;;;;;;;;;;13.20;61.40;;;7.81;100.00;95775.09;5032967;28;20007;-53
2023/04/16 10:24:46;;;;;;;;;;;13.30;61.30;;;7.92;100.00;95773.38;5028968;28;20003;-52
2023/04/16 10:27:12;;;;;;;;;;;13.40;61.30;;;8.01;100.00;95776.44;5011850;28;19999;-54
2023/04/16 10:29:38;;;;;;;;;;;13.50;61.20;;;8.07;100.00;95778.91;5013279;28;19909;-52
2023/04/16 10:32:06;;;;;;;;;;;13.50;61.20;;;8.16;100.00;95781.16;5011152;28;20391;-53
2023/04/16 10:34:33;;;;;;;;;;;13.60;61.30;;;8.10;100.00;95774.97;5027826;28;19983;-53
2023/04/16 10:36:59;;;;;;;;;;;13.70;61.20;;;8.13;100.00;95779.00;5017150;28;20454;-55
2023/04/16 10:39:28;;;;;;;;;;;13.80;61.10;;;8.23;100.00;95774.63;5013440;28;19996;-57
2023/04/16 10:42:11;;;;;;;;;;;13.90;60.90;;;8.28;100.00;95779.19;5013000;28;19915;-58
2023/04/16 10:44:39;;;;;;;;;;;14.00;60.80;;;8.35;100.00;95772.66;5011809;28;19955;-55
2023/04/16 10:47:13;;;;;;;;;;;14.10;60.70;;;8.52;100.00;95766.53;5013093;28;19909;-53
2023/04/16 10:49:40;;;;;;;;;;;14.20;60.60;;;8.58;100.00;95766.34;5011349;28;19913;-56
2023/04/16 10:52:17;;;;;;;;;;;14.30;60.70;;;8.60;100.00;95770.63;5011568;28;20403;-54
2023/04/16 10:54:43;;;;;;;;;;;14.30;60.70;;;8.63;100.00;95765.59;5011830;28;19999;-57
2023/04/16 10:57:16;;;;;;;;;;;14.30;60.70;;;8.56;99.95;95765.78;5012317;28;20010;-56
2023/04/16 10:59:43;;;;;;;;;;;14.20;60.50;;;8.56;98.38;95765.00;5012660;28;19909;-54
2023/04/16 11:02:18;;;;;;;;;;;14.20;60.50;;;8.59;99.50;95769.81;5011493;28;19923;-55
2023/04/16 11:04:47;;;;;;;;;;;14.10;60.50;;;8.63;98.88;95767.47;5012432;28;19932;-56
2023/04/16 11:07:19;;;;;;;;;;;14.20;60.60;;;8.64;97.73;95769.06;5010359;28;19912;-55
2023/04/16 11:09:50;;;;;;;;;;;14.20;60.50;;;8.66;98.54;95767.78;5011716;28;19936;-54
2023/04/16 11:12:39;;;;;;;;;;;14.30;60.30;;;8.75;97.86;95773.44;5012575;28;19964;-54
2023/04/16 11:15:07;;;;;;;;;;;14.40;60.30;;;8.75;96.85;95770.81;4994626;28;19914;-55